sensor_id;sensor_type;location;lat;lon;timestamp;P1;durP1;ratioP1;P2;durP2;ratioP2
76021;SDS011;64718;52.124;6.226;2022-11-14T00:01:48;56.80;;;23.55;;
76021;SDS011;64718;52.124;6.226;2022-11-14T00:04:14;57.13;;;22.73;;
76021;SDS011;64718;52.124;6.226;2022-11-14T00:06:41;62.42;;;26.08;;
76021;SDS011;64718;52.124;6.226;2022-11-14T00:09:09;57.25;;;26.08;;
76021;SDS011;64718;52.124;6.226;2022-11-14T00:11:35;52.28;;;23.48;;
76021;SDS011;64718;52.124;6.226;2022-11-14T00:14:02;61.60;;;21.92;;
76021;SDS011;64718;52.124;6.226;2022-11-14T00:16:28;60.72;;;24.98;;
76021;SDS011;64718;52.124;6.226;2022-11-14T00:18:55;64.60;;;25.60;;
76021;SDS011;64718;52.124;6.226;2022-11-14T00:21:21;63.55;;;26.52;;
76021;SDS011;64718;52.124;6.226;2022-11-14T00:23:48;58.38;;;25.42;;
76021;SDS011;64718;52.124;6.226;2022-11-14T00:26:15;54.58;;;21.75;;
76021;SDS011;64718;52.124;6.226;2022-11-14T00:28:42;54.95;;;21.70;;
76021;SDS011;64718;52.124;6.226;2022-11-14T00:31:09;59.47;;;26.63;;
76021;SDS011;64718;52.124;6.226;2022-11-14T00:33:35;65.22;;;25.13;;
76021;SDS011;64718;52.124;6.226;2022-11-14T00:36:03;62.78;;;23.52;;
76021;SDS011;64718;52.124;6.226;2022-11-14T00:38:29;55.67;;;24.05;;
76021;SDS011;64718;52.124;6.226;2022-11-14T00:40:56;60.47;;;24.80;;
76021;SDS011;64718;52.124;6.226;2022-11-14T00:43:24;55.45;;;24.20;;
76021;SDS011;64718;52.124;6.226;2022-11-14T00:45:50;57.40;;;24.42;;
76021;SDS011;64718;52.124;6.226;2022-11-14T00:48:17;61.58;;;22.55;;
76021;SDS011;64718;52.124;6.226;2022-11-14T00:50:43;63.75;;;23.63;;
76021;SDS011;64718;52.124;6.226;2022-11-14T00:53:10;57.17;;;23.10;;
76021;SDS011;64718;52.124;6.226;2022-11-14T00:55:37;62.10;;;23.10;;
76021;SDS011;64718;52.124;6.226;2022-11-14T00:58:03;56.83;;;23.05;;
76021;SDS011;64718;52.124;6.226;2022-11-14T01:00:31;67.82;;;25.60;;
76021;SDS011;64718;52.124;6.226;2022-11-14T01:02:58;60.95;;;26.08;;
76021;SDS011;64718;52.124;6.226;2022-11-14T01:05:25;57.03;;;24.15;;
76021;SDS011;64718;52.124;6.226;2022-11-14T01:07:52;58.13;;;23.55;;
76021;SDS011;64718;52.124;6.226;2022-11-14T01:10:18;55.20;;;22.92;;
76021;SDS011;64718;52.124;6.226;2022-11-14T01:12:45;56.10;;;22.92;;
76021;SDS011;64718;52.124;6.226;2022-11-14T01:15:12;63.08;;;25.13;;
76021;SDS011;64718;52.124;6.226;2022-11-14T01:17:40;59.50;;;22.00;;
76021;SDS011;64718;52.124;6.226;2022-11-14T01:20:07;64.88;;;25.50;;
76021;SDS011;64718;52.124;6.226;2022-11-14T01:22:34;75.25;;;26.65;;
76021;SDS011;64718;52.124;6.226;2022-11-14T01:25:00;66.00;;;25.05;;
76021;SDS011;64718;52.124;6.226;2022-11-14T01:27:29;64.53;;;24.10;;
76021;SDS011;64718;52.124;6.226;2022-11-14T01:29:55;61.85;;;24.80;;
76021;SDS011;64718;52.124;6.226;2022-11-14T01:32:22;65.22;;;22.92;;
76021;SDS011;64718;52.124;6.226;2022-11-14T01:34:50;57.63;;;23.33;;
76021;SDS011;64718;52.124;6.226;2022-11-14T01:37:16;55.65;;;22.23;;
76021;SDS011;64718;52.124;6.226;2022-11-14T01:39:43;57.63;;;23.42;;
76021;SDS011;64718;52.124;6.226;2022-11-14T01:42:09;63.13;;;23.02;;
76021;SDS011;64718;52.124;6.226;2022-11-14T01:44:46;63.63;;;22.35;;
76021;SDS011;64718;52.124;6.226;2022-11-14T01:47:15;60.17;;;22.55;;
76021;SDS011;64718;52.124;6.226;2022-11-14T01:49:45;60.15;;;24.17;;
76021;SDS011;64718;52.124;6.226;2022-11-14T01:52:16;65.68;;;23.92;;
76021;SDS011;64718;52.124;6.226;2022-11-14T01:54:45;67.18;;;24.75;;
76021;SDS011;64718;52.124;6.226;2022-11-14T01:59:43;62.53;;;21.45;;
76021;SDS011;64718;52.124;6.226;2022-11-14T02:02:14;61.78;;;23.67;;
76021;SDS011;64718;52.124;6.226;2022-11-14T02:04:42;67.22;;;23.10;;
76021;SDS011;64718;52.124;6.226;2022-11-14T02:07:12;67.38;;;24.63;;
76021;SDS011;64718;52.124;6.226;2022-11-14T02:09:42;63.88;;;23.48;;
76021;SDS011;64718;52.124;6.226;2022-11-14T02:12:11;60.13;;;22.42;;
76021;SDS011;64718;52.124;6.226;2022-11-14T02:14:40;65.53;;;23.33;;
76021;SDS011;64718;52.124;6.226;2022-11-14T02:17:09;59.45;;;22.65;;
76021;SDS011;64718;52.124;6.226;2022-11-14T02:19:39;68.20;;;24.63;;
76021;SDS011;64718;52.124;6.226;2022-11-14T02:22:08;58.30;;;23.67;;
76021;SDS011;64718;52.124;6.226;2022-11-14T02:24:35;59.90;;;23.33;;
76021;SDS011;64718;52.124;6.226;2022-11-14T02:27:02;59.00;;;23.20;;
76021;SDS011;64718;52.124;6.226;2022-11-14T02:29:30;69.88;;;24.90;;
76021;SDS011;64718;52.124;6.226;2022-11-14T02:32:00;61.00;;;23.70;;
76021;SDS011;64718;52.124;6.226;2022-11-14T02:34:27;57.33;;;22.63;;
76021;SDS011;64718;52.124;6.226;2022-11-14T02:36:54;57.58;;;21.38;;
76021;SDS011;64718;52.124;6.226;2022-11-14T02:39:22;50.85;;;20.00;;
76021;SDS011;64718;52.124;6.226;2022-11-14T02:41:49;52.60;;;20.65;;
76021;SDS011;64718;52.124;6.226;2022-11-14T02:44:16;53.25;;;19.48;;
76021;SDS011;64718;52.124;6.226;2022-11-14T02:46:43;56.70;;;22.40;;
76021;SDS011;64718;52.124;6.226;2022-11-14T02:49:10;64.28;;;24.65;;
76021;SDS011;64718;52.124;6.226;2022-11-14T02:51:36;68.57;;;23.63;;
76021;SDS011;64718;52.124;6.226;2022-11-14T02:54:03;63.83;;;23.10;;
76021;SDS011;64718;52.124;6.226;2022-11-14T02:56:31;64.75;;;22.42;;
76021;SDS011;64718;52.124;6.226;2022-11-14T02:58:57;63.33;;;23.45;;
76021;SDS011;64718;52.124;6.226;2022-11-14T03:01:24;64.13;;;24.48;;
76021;SDS011;64718;52.124;6.226;2022-11-14T03:03:50;63.88;;;22.80;;
76021;SDS011;64718;52.124;6.226;2022-11-14T03:06:17;55.70;;;20.77;;
76021;SDS011;64718;52.124;6.226;2022-11-14T03:08:43;56.55;;;20.25;;
76021;SDS011;64718;52.124;6.226;2022-11-14T03:11:10;51.55;;;20.02;;
76021;SDS011;64718;52.124;6.226;2022-11-14T03:13:38;54.38;;;21.33;;
76021;SDS011;64718;52.124;6.226;2022-11-14T03:16:04;50.85;;;19.95;;
76021;SDS011;64718;52.124;6.226;2022-11-14T03:18:32;61.97;;;23.58;;
76021;SDS011;64718;52.124;6.226;2022-11-14T03:21:03;64.07;;;24.73;;
76021;SDS011;64718;52.124;6.226;2022-11-14T03:23:30;68.47;;;22.55;;
76021;SDS011;64718;52.124;6.226;2022-11-14T03:25:58;59.47;;;21.67;;
76021;SDS011;64718;52.124;6.226;2022-11-14T03:28:25;56.65;;;21.40;;
76021;SDS011;64718;52.124;6.226;2022-11-14T03:30:53;53.80;;;19.08;;
76021;SDS011;64718;52.124;6.226;2022-11-14T03:33:20;50.20;;;19.35;;
76021;SDS011;64718;52.124;6.226;2022-11-14T03:35:47;51.15;;;21.80;;
76021;SDS011;64718;52.124;6.226;2022-11-14T03:38:14;42.17;;;16.92;;
76021;SDS011;64718;52.124;6.226;2022-11-14T03:40:41;46.05;;;17.60;;
76021;SDS011;64718;52.124;6.226;2022-11-14T03:43:08;42.75;;;17.52;;
76021;SDS011;64718;52.124;6.226;2022-11-14T03:45:35;35.55;;;15.95;;
76021;SDS011;64718;52.124;6.226;2022-11-14T03:48:04;33.60;;;16.52;;
76021;SDS011;64718;52.124;6.226;2022-11-14T03:50:31;41.17;;;17.38;;
76021;SDS011;64718;52.124;6.226;2022-11-14T03:52:57;43.78;;;17.92;;
76021;SDS011;64718;52.124;6.226;2022-11-14T03:55:24;37.13;;;14.55;;
76021;SDS011;64718;52.124;6.226;2022-11-14T03:57:51;42.88;;;17.58;;
76021;SDS011;64718;52.124;6.226;2022-11-14T04:00:17;40.45;;;15.82;;
76021;SDS011;64718;52.124;6.226;2022-11-14T04:02:44;41.17;;;16.77;;
76021;SDS011;64718;52.124;6.226;2022-11-14T04:05:13;41.47;;;18.05;;
76021;SDS011;64718;52.124;6.226;2022-11-14T04:07:39;39.05;;;17.08;;
76021;SDS011;64718;52.124;6.226;2022-11-14T04:10:06;36.97;;;16.45;;
76021;SDS011;64718;52.124;6.226;2022-11-14T04:12:33;44.60;;;18.48;;
76021;SDS011;64718;52.124;6.226;2022-11-14T04:15:00;43.33;;;17.30;;
76021;SDS011;64718;52.124;6.226;2022-11-14T04:17:26;42.67;;;18.45;;
76021;SDS011;64718;52.124;6.226;2022-11-14T04:19:53;38.80;;;16.38;;
76021;SDS011;64718;52.124;6.226;2022-11-14T04:22:21;41.15;;;16.08;;
76021;SDS011;64718;52.124;6.226;2022-11-14T04:24:47;43.33;;;16.13;;
76021;SDS011;64718;52.124;6.226;2022-11-14T04:27:14;39.10;;;15.65;;
76021;SDS011;64718;52.124;6.226;2022-11-14T04:29:40;36.25;;;15.63;;
76021;SDS011;64718;52.124;6.226;2022-11-14T04:32:07;41.55;;;17.30;;
76021;SDS011;64718;52.124;6.226;2022-11-14T04:34:33;44.38;;;16.60;;
76021;SDS011;64718;52.124;6.226;2022-11-14T04:37:00;39.45;;;15.18;;
76021;SDS011;64718;52.124;6.226;2022-11-14T04:39:28;44.10;;;18.85;;
76021;SDS011;64718;52.124;6.226;2022-11-14T04:41:54;40.00;;;16.83;;
76021;SDS011;64718;52.124;6.226;2022-11-14T04:44:21;39.40;;;16.00;;
76021;SDS011;64718;52.124;6.226;2022-11-14T04:46:47;44.58;;;19.40;;
76021;SDS011;64718;52.124;6.226;2022-11-14T04:49:14;42.80;;;15.90;;
76021;SDS011;64718;52.124;6.226;2022-11-14T04:51:41;45.17;;;15.10;;
76021;SDS011;64718;52.124;6.226;2022-11-14T04:54:08;45.03;;;17.10;;
76021;SDS011;64718;52.124;6.226;2022-11-14T04:56:35;45.10;;;19.25;;
76021;SDS011;64718;52.124;6.226;2022-11-14T04:59:02;42.53;;;17.65;;
76021;SDS011;64718;52.124;6.226;2022-11-14T05:01:28;49.42;;;17.38;;
76021;SDS011;64718;52.124;6.226;2022-11-14T05:03:55;41.05;;;16.52;;
76021;SDS011;64718;52.124;6.226;2022-11-14T05:06:22;45.30;;;17.55;;
76021;SDS011;64718;52.124;6.226;2022-11-14T05:08:48;48.38;;;18.10;;
76021;SDS011;64718;52.124;6.226;2022-11-14T05:11:15;46.40;;;18.50;;
76021;SDS011;64718;52.124;6.226;2022-11-14T05:13:44;40.03;;;14.75;;
76021;SDS011;64718;52.124;6.226;2022-11-14T05:16:11;37.67;;;16.13;;
76021;SDS011;64718;52.124;6.226;2022-11-14T05:18:38;38.58;;;16.75;;
76021;SDS011;64718;52.124;6.226;2022-11-14T05:21:05;43.00;;;17.08;;
76021;SDS011;64718;52.124;6.226;2022-11-14T05:23:32;43.50;;;15.20;;
76021;SDS011;64718;52.124;6.226;2022-11-14T05:25:59;48.75;;;18.50;;
76021;SDS011;64718;52.124;6.226;2022-11-14T05:28:26;38.60;;;16.70;;
76021;SDS011;64718;52.124;6.226;2022-11-14T05:31:00;45.90;;;16.48;;
76021;SDS011;64718;52.124;6.226;2022-11-14T05:33:27;49.83;;;17.20;;
76021;SDS011;64718;52.124;6.226;2022-11-14T05:35:54;50.35;;;18.85;;
76021;SDS011;64718;52.124;6.226;2022-11-14T05:38:20;44.40;;;17.52;;
76021;SDS011;64718;52.124;6.226;2022-11-14T05:40:47;40.70;;;15.32;;
76021;SDS011;64718;52.124;6.226;2022-11-14T05:43:13;41.00;;;15.82;;
76021;SDS011;64718;52.124;6.226;2022-11-14T05:45:40;36.28;;;16.75;;
76021;SDS011;64718;52.124;6.226;2022-11-14T05:48:08;42.92;;;17.27;;
76021;SDS011;64718;52.124;6.226;2022-11-14T05:50:34;41.55;;;16.67;;
76021;SDS011;64718;52.124;6.226;2022-11-14T05:53:01;42.05;;;16.45;;
76021;SDS011;64718;52.124;6.226;2022-11-14T05:55:27;42.47;;;15.63;;
76021;SDS011;64718;52.124;6.226;2022-11-14T05:57:56;47.45;;;18.67;;
76021;SDS011;64718;52.124;6.226;2022-11-14T06:00:23;46.70;;;18.60;;
76021;SDS011;64718;52.124;6.226;2022-11-14T06:02:51;52.28;;;17.40;;
76021;SDS011;64718;52.124;6.226;2022-11-14T06:05:19;45.50;;;18.05;;
76021;SDS011;64718;52.124;6.226;2022-11-14T06:07:45;48.78;;;18.58;;
76021;SDS011;64718;52.124;6.226;2022-11-14T06:10:12;57.67;;;22.17;;
76021;SDS011;64718;52.124;6.226;2022-11-14T06:12:39;59.42;;;21.45;;
76021;SDS011;64718;52.124;6.226;2022-11-14T06:15:06;64.03;;;22.83;;
76021;SDS011;64718;52.124;6.226;2022-11-14T06:17:33;55.92;;;21.27;;
76021;SDS011;64718;52.124;6.226;2022-11-14T06:19:59;52.42;;;19.75;;
76021;SDS011;64718;52.124;6.226;2022-11-14T06:22:27;58.70;;;21.70;;
76021;SDS011;64718;52.124;6.226;2022-11-14T06:24:54;56.13;;;21.00;;
76021;SDS011;64718;52.124;6.226;2022-11-14T06:27:20;53.83;;;20.20;;
76021;SDS011;64718;52.124;6.226;2022-11-14T06:29:47;65.32;;;24.33;;
76021;SDS011;64718;52.124;6.226;2022-11-14T06:32:13;62.47;;;20.75;;
76021;SDS011;64718;52.124;6.226;2022-11-14T06:34:40;52.85;;;20.55;;
76021;SDS011;64718;52.124;6.226;2022-11-14T06:37:06;54.92;;;21.40;;
76021;SDS011;64718;52.124;6.226;2022-11-14T06:39:34;54.67;;;19.70;;
76021;SDS011;64718;52.124;6.226;2022-11-14T06:42:00;56.53;;;20.25;;
76021;SDS011;64718;52.124;6.226;2022-11-14T06:44:27;48.88;;;16.00;;
76021;SDS011;64718;52.124;6.226;2022-11-14T06:46:53;51.22;;;20.50;;
76021;SDS011;64718;52.124;6.226;2022-11-14T06:49:20;49.33;;;19.80;;
76021;SDS011;64718;52.124;6.226;2022-11-14T06:51:48;59.25;;;19.33;;
76021;SDS011;64718;52.124;6.226;2022-11-14T06:54:15;47.05;;;17.80;;
76021;SDS011;64718;52.124;6.226;2022-11-14T06:56:43;46.40;;;18.52;;
76021;SDS011;64718;52.124;6.226;2022-11-14T06:59:10;40.35;;;17.00;;
76021;SDS011;64718;52.124;6.226;2022-11-14T07:01:36;44.33;;;16.75;;
76021;SDS011;64718;52.124;6.226;2022-11-14T07:04:03;50.58;;;18.77;;
76021;SDS011;64718;52.124;6.226;2022-11-14T07:06:30;50.40;;;17.80;;
76021;SDS011;64718;52.124;6.226;2022-11-14T07:08:56;53.45;;;19.58;;
76021;SDS011;64718;52.124;6.226;2022-11-14T07:11:24;48.10;;;18.33;;
76021;SDS011;64718;52.124;6.226;2022-11-14T07:13:55;53.33;;;19.77;;
76021;SDS011;64718;52.124;6.226;2022-11-14T07:16:23;43.53;;;17.63;;
76021;SDS011;64718;52.124;6.226;2022-11-14T07:18:53;65.60;;;21.60;;
76021;SDS011;64718;52.124;6.226;2022-11-14T07:21:20;45.75;;;18.15;;
76021;SDS011;64718;52.124;6.226;2022-11-14T07:23:46;53.55;;;21.35;;
76021;SDS011;64718;52.124;6.226;2022-11-14T07:26:13;58.03;;;22.20;;
76021;SDS011;64718;52.124;6.226;2022-11-14T07:28:40;47.50;;;18.58;;
76021;SDS011;64718;52.124;6.226;2022-11-14T07:31:10;48.15;;;19.17;;
76021;SDS011;64718;52.124;6.226;2022-11-14T07:33:38;46.13;;;20.42;;
76021;SDS011;64718;52.124;6.226;2022-11-14T07:36:06;45.78;;;19.00;;
76021;SDS011;64718;52.124;6.226;2022-11-14T07:38:33;40.97;;;17.88;;
76021;SDS011;64718;52.124;6.226;2022-11-14T07:41:01;42.63;;;19.27;;
76021;SDS011;64718;52.124;6.226;2022-11-14T07:43:29;36.08;;;15.50;;
76021;SDS011;64718;52.124;6.226;2022-11-14T07:45:57;39.42;;;18.10;;
76021;SDS011;64718;52.124;6.226;2022-11-14T07:48:25;33.10;;;15.60;;
76021;SDS011;64718;52.124;6.226;2022-11-14T07:50:52;38.67;;;17.73;;
76021;SDS011;64718;52.124;6.226;2022-11-14T07:53:18;44.30;;;18.58;;
76021;SDS011;64718;52.124;6.226;2022-11-14T07:55:45;41.22;;;18.13;;
76021;SDS011;64718;52.124;6.226;2022-11-14T07:58:11;44.80;;;18.90;;
76021;SDS011;64718;52.124;6.226;2022-11-14T08:00:38;40.38;;;17.17;;
76021;SDS011;64718;52.124;6.226;2022-11-14T08:03:05;41.78;;;17.73;;
76021;SDS011;64718;52.124;6.226;2022-11-14T08:05:33;39.88;;;17.80;;
76021;SDS011;64718;52.124;6.226;2022-11-14T08:07:59;44.88;;;19.38;;
76021;SDS011;64718;52.124;6.226;2022-11-14T08:10:26;38.28;;;17.58;;
76021;SDS011;64718;52.124;6.226;2022-11-14T08:12:56;43.67;;;19.05;;
76021;SDS011;64718;52.124;6.226;2022-11-14T08:15:23;46.15;;;19.42;;
76021;SDS011;64718;52.124;6.226;2022-11-14T08:17:50;53.97;;;24.65;;
76021;SDS011;64718;52.124;6.226;2022-11-14T08:20:17;56.38;;;21.73;;
76021;SDS011;64718;52.124;6.226;2022-11-14T08:22:45;53.47;;;22.73;;
76021;SDS011;64718;52.124;6.226;2022-11-14T08:25:11;43.85;;;18.83;;
76021;SDS011;64718;52.124;6.226;2022-11-14T08:27:37;48.17;;;19.52;;
76021;SDS011;64718;52.124;6.226;2022-11-14T08:30:04;35.63;;;16.20;;
76021;SDS011;64718;52.124;6.226;2022-11-14T08:32:32;40.38;;;18.58;;
76021;SDS011;64718;52.124;6.226;2022-11-14T08:34:58;39.20;;;16.80;;
76021;SDS011;64718;52.124;6.226;2022-11-14T08:37:25;39.08;;;18.30;;
76021;SDS011;64718;52.124;6.226;2022-11-14T08:39:52;37.05;;;18.17;;
76021;SDS011;64718;52.124;6.226;2022-11-14T08:42:19;38.22;;;17.70;;
76021;SDS011;64718;52.124;6.226;2022-11-14T08:44:45;37.10;;;18.70;;
76021;SDS011;64718;52.124;6.226;2022-11-14T08:47:12;38.85;;;17.30;;
76021;SDS011;64718;52.124;6.226;2022-11-14T08:49:38;38.40;;;17.73;;
76021;SDS011;64718;52.124;6.226;2022-11-14T08:52:05;33.17;;;17.48;;
76021;SDS011;64718;52.124;6.226;2022-11-14T08:54:31;33.63;;;16.98;;
76021;SDS011;64718;52.124;6.226;2022-11-14T08:56:59;30.23;;;16.58;;
76021;SDS011;64718;52.124;6.226;2022-11-14T08:59:25;32.67;;;15.77;;
76021;SDS011;64718;52.124;6.226;2022-11-14T09:01:52;29.17;;;15.88;;
76021;SDS011;64718;52.124;6.226;2022-11-14T09:04:18;31.10;;;15.10;;
76021;SDS011;64718;52.124;6.226;2022-11-14T09:06:45;27.48;;;14.32;;
76021;SDS011;64718;52.124;6.226;2022-11-14T09:09:11;32.80;;;16.17;;
76021;SDS011;64718;52.124;6.226;2022-11-14T09:11:38;28.85;;;15.32;;
76021;SDS011;64718;52.124;6.226;2022-11-14T09:14:06;31.08;;;16.10;;
76021;SDS011;64718;52.124;6.226;2022-11-14T09:16:33;30.50;;;13.90;;
76021;SDS011;64718;52.124;6.226;2022-11-14T09:18:59;34.95;;;15.10;;
76021;SDS011;64718;52.124;6.226;2022-11-14T09:21:26;31.77;;;14.73;;
76021;SDS011;64718;52.124;6.226;2022-11-14T09:23:52;29.02;;;14.73;;
76021;SDS011;64718;52.124;6.226;2022-11-14T09:26:19;32.38;;;15.88;;
76021;SDS011;64718;52.124;6.226;2022-11-14T09:28:45;29.27;;;15.15;;
76021;SDS011;64718;52.124;6.226;2022-11-14T09:31:13;28.63;;;15.10;;
76021;SDS011;64718;52.124;6.226;2022-11-14T09:33:40;27.88;;;14.13;;
76021;SDS011;64718;52.124;6.226;2022-11-14T09:36:07;28.15;;;14.88;;
76021;SDS011;64718;52.124;6.226;2022-11-14T09:38:39;25.33;;;14.75;;
76021;SDS011;64718;52.124;6.226;2022-11-14T09:41:10;23.17;;;13.15;;
76021;SDS011;64718;52.124;6.226;2022-11-14T09:46:43;23.60;;;13.43;;
76021;SDS011;64718;52.124;6.226;2022-11-14T09:49:17;25.00;;;14.07;;
76021;SDS011;64718;52.124;6.226;2022-11-14T09:51:57;25.00;;;12.65;;
76021;SDS011;64718;52.124;6.226;2022-11-14T09:54:31;25.63;;;13.25;;
76021;SDS011;64718;52.124;6.226;2022-11-14T09:57:07;23.00;;;12.23;;
76021;SDS011;64718;52.124;6.226;2022-11-14T10:02:12;23.80;;;12.48;;
76021;SDS011;64718;52.124;6.226;2022-11-14T10:04:48;22.65;;;11.60;;
76021;SDS011;64718;52.124;6.226;2022-11-14T10:07:25;20.80;;;12.93;;
76021;SDS011;64718;52.124;6.226;2022-11-14T10:10:01;24.92;;;13.63;;
76021;SDS011;64718;52.124;6.226;2022-11-14T10:12:34;22.88;;;13.35;;
76021;SDS011;64718;52.124;6.226;2022-11-14T10:15:13;24.95;;;13.20;;
76021;SDS011;64718;52.124;6.226;2022-11-14T10:17:55;21.08;;;12.88;;
76021;SDS011;64718;52.124;6.226;2022-11-14T10:20:30;17.90;;;10.85;;
76021;SDS011;64718;52.124;6.226;2022-11-14T10:23:09;21.95;;;11.98;;
76021;SDS011;64718;52.124;6.226;2022-11-14T10:25:46;21.05;;;11.50;;
76021;SDS011;64718;52.124;6.226;2022-11-14T10:28:23;19.45;;;11.52;;
76021;SDS011;64718;52.124;6.226;2022-11-14T10:31:00;18.90;;;11.45;;
76021;SDS011;64718;52.124;6.226;2022-11-14T10:33:45;18.95;;;11.93;;
76021;SDS011;64718;52.124;6.226;2022-11-14T10:36:20;19.02;;;12.00;;
76021;SDS011;64718;52.124;6.226;2022-11-14T10:38:59;19.48;;;11.77;;
76021;SDS011;64718;52.124;6.226;2022-11-14T10:41:30;19.92;;;11.68;;
76021;SDS011;64718;52.124;6.226;2022-11-14T10:43:57;20.52;;;12.27;;
76021;SDS011;64718;52.124;6.226;2022-11-14T10:46:25;18.45;;;11.68;;
76021;SDS011;64718;52.124;6.226;2022-11-14T10:48:57;20.85;;;11.43;;
76021;SDS011;64718;52.124;6.226;2022-11-14T10:51:26;22.65;;;12.00;;
76021;SDS011;64718;52.124;6.226;2022-11-14T10:53:59;21.05;;;11.98;;
76021;SDS011;64718;52.124;6.226;2022-11-14T10:56:30;20.20;;;11.38;;
76021;SDS011;64718;52.124;6.226;2022-11-14T10:58:57;20.42;;;12.23;;
76021;SDS011;64718;52.124;6.226;2022-11-14T11:01:37;19.52;;;11.18;;
76021;SDS011;64718;52.124;6.226;2022-11-14T11:04:20;19.50;;;11.65;;
76021;SDS011;64718;52.124;6.226;2022-11-14T11:06:51;18.80;;;10.95;;
76021;SDS011;64718;52.124;6.226;2022-11-14T11:09:19;21.38;;;11.05;;
76021;SDS011;64718;52.124;6.226;2022-11-14T11:12:05;34.63;;;19.08;;
76021;SDS011;64718;52.124;6.226;2022-11-14T11:14:33;17.75;;;11.40;;
76021;SDS011;64718;52.124;6.226;2022-11-14T11:17:06;19.20;;;12.57;;
76021;SDS011;64718;52.124;6.226;2022-11-14T11:19:46;18.42;;;11.13;;
76021;SDS011;64718;52.124;6.226;2022-11-14T11:22:24;20.42;;;12.48;;
76021;SDS011;64718;52.124;6.226;2022-11-14T11:24:55;19.40;;;12.52;;
76021;SDS011;64718;52.124;6.226;2022-11-14T11:27:22;18.20;;;11.95;;
76021;SDS011;64718;52.124;6.226;2022-11-14T11:30:00;18.17;;;11.65;;
76021;SDS011;64718;52.124;6.226;2022-11-14T11:32:32;18.23;;;10.60;;
76021;SDS011;64718;52.124;6.226;2022-11-14T11:35:01;20.27;;;11.48;;
76021;SDS011;64718;52.124;6.226;2022-11-14T11:37:34;18.65;;;11.20;;
76021;SDS011;64718;52.124;6.226;2022-11-14T11:40:05;17.58;;;11.18;;
76021;SDS011;64718;52.124;6.226;2022-11-14T11:42:39;19.10;;;11.48;;
76021;SDS011;64718;52.124;6.226;2022-11-14T11:45:10;18.67;;;11.10;;
76021;SDS011;64718;52.124;6.226;2022-11-14T11:47:41;17.45;;;10.95;;
76021;SDS011;64718;52.124;6.226;2022-11-14T11:50:15;20.35;;;10.98;;
76021;SDS011;64718;52.124;6.226;2022-11-14T11:52:44;17.15;;;10.98;;
76021;SDS011;64718;52.124;6.226;2022-11-14T11:55:17;17.88;;;11.75;;
76021;SDS011;64718;52.124;6.226;2022-11-14T11:57:47;18.67;;;10.80;;
76021;SDS011;64718;52.124;6.226;2022-11-14T12:00:23;17.33;;;10.00;;
76021;SDS011;64718;52.124;6.226;2022-11-14T12:02:50;14.95;;;9.77;;
76021;SDS011;64718;52.124;6.226;2022-11-14T12:05:21;17.02;;;11.05;;
76021;SDS011;64718;52.124;6.226;2022-11-14T12:07:54;23.45;;;14.05;;
76021;SDS011;64718;52.124;6.226;2022-11-14T12:10:26;19.25;;;11.98;;
76021;SDS011;64718;52.124;6.226;2022-11-14T12:16:02;20.88;;;12.75;;
76021;SDS011;64718;52.124;6.226;2022-11-14T12:18:39;19.25;;;11.50;;
76021;SDS011;64718;52.124;6.226;2022-11-14T12:24:17;20.92;;;12.80;;
76021;SDS011;64718;52.124;6.226;2022-11-14T12:27:03;17.73;;;12.57;;
76021;SDS011;64718;52.124;6.226;2022-11-14T12:29:47;23.92;;;11.70;;
76021;SDS011;64718;52.124;6.226;2022-11-14T12:32:27;20.77;;;13.48;;
76021;SDS011;64718;52.124;6.226;2022-11-14T12:34:56;24.63;;;13.68;;
76021;SDS011;64718;52.124;6.226;2022-11-14T12:37:28;21.85;;;13.25;;
76021;SDS011;64718;52.124;6.226;2022-11-14T12:39:58;26.48;;;14.52;;
76021;SDS011;64718;52.124;6.226;2022-11-14T12:42:27;24.13;;;15.48;;
76021;SDS011;64718;52.124;6.226;2022-11-14T12:44:53;22.25;;;14.18;;
76021;SDS011;64718;52.124;6.226;2022-11-14T12:47:20;20.25;;;13.77;;
76021;SDS011;64718;52.124;6.226;2022-11-14T12:52:53;24.00;;;14.55;;
76021;SDS011;64718;52.124;6.226;2022-11-14T12:58:43;19.30;;;11.80;;
76021;SDS011;64718;52.124;6.226;2022-11-14T13:01:22;21.08;;;14.10;;
76021;SDS011;64718;52.124;6.226;2022-11-14T13:04:04;21.63;;;12.73;;
76021;SDS011;64718;52.124;6.226;2022-11-14T13:06:42;18.52;;;11.77;;
76021;SDS011;64718;52.124;6.226;2022-11-14T13:09:20;20.73;;;13.23;;
76021;SDS011;64718;52.124;6.226;2022-11-14T13:11:56;20.73;;;14.60;;
76021;SDS011;64718;52.124;6.226;2022-11-14T13:14:47;22.40;;;13.73;;
76021;SDS011;64718;52.124;6.226;2022-11-14T13:17:32;18.63;;;13.82;;
76021;SDS011;64718;52.124;6.226;2022-11-14T13:20:28;25.60;;;16.88;;
76021;SDS011;64718;52.124;6.226;2022-11-14T13:26:40;17.08;;;10.40;;
76021;SDS011;64718;52.124;6.226;2022-11-14T13:35:39;14.10;;;9.50;;
76021;SDS011;64718;52.124;6.226;2022-11-14T13:38:29;14.32;;;9.82;;
76021;SDS011;64718;52.124;6.226;2022-11-14T13:41:22;12.40;;;9.57;;
76021;SDS011;64718;52.124;6.226;2022-11-14T13:44:03;14.45;;;8.30;;
76021;SDS011;64718;52.124;6.226;2022-11-14T13:46:48;13.82;;;10.18;;
76021;SDS011;64718;52.124;6.226;2022-11-14T13:49:31;14.07;;;9.80;;
76021;SDS011;64718;52.124;6.226;2022-11-14T13:52:11;13.00;;;9.98;;
76021;SDS011;64718;52.124;6.226;2022-11-14T13:54:43;13.57;;;9.05;;
76021;SDS011;64718;52.124;6.226;2022-11-14T13:57:13;13.27;;;8.43;;
76021;SDS011;64718;52.124;6.226;2022-11-14T13:59:50;12.30;;;8.15;;
76021;SDS011;64718;52.124;6.226;2022-11-14T14:02:35;11.73;;;8.40;;
76021;SDS011;64718;52.124;6.226;2022-11-14T14:05:14;11.98;;;8.65;;
76021;SDS011;64718;52.124;6.226;2022-11-14T14:07:52;13.48;;;9.57;;
76021;SDS011;64718;52.124;6.226;2022-11-14T14:10:36;13.13;;;8.90;;
76021;SDS011;64718;52.124;6.226;2022-11-14T14:13:13;12.48;;;9.13;;
76021;SDS011;64718;52.124;6.226;2022-11-14T14:15:59;12.38;;;8.32;;
76021;SDS011;64718;52.124;6.226;2022-11-14T14:21:08;13.57;;;9.27;;
76021;SDS011;64718;52.124;6.226;2022-11-14T14:23:43;14.35;;;9.23;;
76021;SDS011;64718;52.124;6.226;2022-11-14T14:26:16;14.05;;;7.97;;
76021;SDS011;64718;52.124;6.226;2022-11-14T14:28:48;13.57;;;9.90;;
76021;SDS011;64718;52.124;6.226;2022-11-14T14:33:59;12.48;;;8.77;;
76021;SDS011;64718;52.124;6.226;2022-11-14T14:36:27;12.40;;;8.98;;
76021;SDS011;64718;52.124;6.226;2022-11-14T14:39:05;12.98;;;8.13;;
76021;SDS011;64718;52.124;6.226;2022-11-14T14:41:40;13.15;;;8.95;;
76021;SDS011;64718;52.124;6.226;2022-11-14T14:44:10;15.48;;;9.88;;
76021;SDS011;64718;52.124;6.226;2022-11-14T14:46:46;11.88;;;7.88;;
76021;SDS011;64718;52.124;6.226;2022-11-14T14:49:16;14.32;;;9.23;;
76021;SDS011;64718;52.124;6.226;2022-11-14T14:51:45;12.88;;;8.82;;
76021;SDS011;64718;52.124;6.226;2022-11-14T14:54:17;14.90;;;10.10;;
76021;SDS011;64718;52.124;6.226;2022-11-14T14:56:51;13.98;;;9.55;;
76021;SDS011;64718;52.124;6.226;2022-11-14T14:59:20;13.55;;;8.75;;
76021;SDS011;64718;52.124;6.226;2022-11-14T15:01:49;10.70;;;8.02;;
76021;SDS011;64718;52.124;6.226;2022-11-14T15:04:16;11.52;;;7.63;;
76021;SDS011;64718;52.124;6.226;2022-11-14T15:06:44;12.30;;;8.77;;
76021;SDS011;64718;52.124;6.226;2022-11-14T15:09:15;14.20;;;7.93;;
76021;SDS011;64718;52.124;6.226;2022-11-14T15:11:45;13.27;;;7.35;;
76021;SDS011;64718;52.124;6.226;2022-11-14T15:16:41;12.32;;;7.70;;